sensor_id;sensor_type;location;lat;lon;timestamp;temperature;humidity
15257;DHT22;7731;50.720;6.912;2024-02-21T00:00:25;9.00;99.90
15257;DHT22;7731;50.720;6.912;2024-02-21T00:02:58;9.00;99.90
15257;DHT22;7731;50.720;6.912;2024-02-21T00:05:36;9.00;99.90
15257;DHT22;7731;50.720;6.912;2024-02-21T00:08:07;9.00;99.90
15257;DHT22;7731;50.720;6.912;2024-02-21T00:10:45;9.00;99.90
15257;DHT22;7731;50.720;6.912;2024-02-21T00:13:19;9.00;99.90
15257;DHT22;7731;50.720;6.912;2024-02-21T00:15:49;9.00;99.90
15257;DHT22;7731;50.720;6.912;2024-02-21T00:18:20;9.00;99.90
15257;DHT22;7731;50.720;6.912;2024-02-21T00:20:56;8.90;99.90
15257;DHT22;7731;50.720;6.912;2024-02-21T00:23:29;8.90;99.90
15257;DHT22;7731;50.720;6.912;2024-02-21T00:26:02;8.90;99.90
15257;DHT22;7731;50.720;6.912;2024-02-21T00:28:35;8.80;99.90
15257;DHT22;7731;50.720;6.912;2024-02-21T00:31:08;8.80;99.90
15257;DHT22;7731;50.720;6.912;2024-02-21T00:33:38;8.80;99.90
15257;DHT22;7731;50.720;6.912;2024-02-21T00:36:11;8.80;99.90
15257;DHT22;7731;50.720;6.912;2024-02-21T00:38:49;8.80;99.90
15257;DHT22;7731;50.720;6.912;2024-02-21T00:41:22;8.80;99.90
15257;DHT22;7731;50.720;6.912;2024-02-21T00:43:54;8.80;99.90
15257;DHT22;7731;50.720;6.912;2024-02-21T00:46:27;8.70;99.90
15257;DHT22;7731;50.720;6.912;2024-02-21T00:49:06;8.80;99.90
15257;DHT22;7731;50.720;6.912;2024-02-21T00:51:42;8.80;99.90
15257;DHT22;7731;50.720;6.912;2024-02-21T00:54:15;8.80;99.90
15257;DHT22;7731;50.720;6.912;2024-02-21T00:56:51;8.80;99.90
15257;DHT22;7731;50.720;6.912;2024-02-21T00:59:24;8.80;99.90
15257;DHT22;7731;50.720;6.912;2024-02-21T01:01:54;8.80;99.90
15257;DHT22;7731;50.720;6.912;2024-02-21T01:04:27;8.80;99.90
15257;DHT22;7731;50.720;6.912;2024-02-21T01:07:02;8.80;99.90
15257;DHT22;7731;50.720;6.912;2024-02-21T01:09:33;8.90;99.90
15257;DHT22;7731;50.720;6.912;2024-02-21T01:12:06;9.00;99.90
15257;DHT22;7731;50.720;6.912;2024-02-21T01:14:36;9.00;99.90
15257;DHT22;7731;50.720;6.912;2024-02-21T01:17:07;9.10;99.90
15257;DHT22;7731;50.720;6.912;2024-02-21T01:19:40;9.10;99.90
15257;DHT22;7731;50.720;6.912;2024-02-21T01:22:23;9.00;99.90
15257;DHT22;7731;50.720;6.912;2024-02-21T01:24:53;9.00;99.90
15257;DHT22;7731;50.720;6.912;2024-02-21T01:27:26;9.00;99.90
15257;DHT22;7731;50.720;6.912;2024-02-21T01:29:57;9.00;99.90
15257;DHT22;7731;50.720;6.912;2024-02-21T01:32:27;8.90;99.90
15257;DHT22;7731;50.720;6.912;2024-02-21T01:34:59;8.90;99.90
15257;DHT22;7731;50.720;6.912;2024-02-21T01:37:30;8.90;99.90
15257;DHT22;7731;50.720;6.912;2024-02-21T01:40:07;8.90;99.90
15257;DHT22;7731;50.720;6.912;2024-02-21T01:42:41;8.90;99.90
15257;DHT22;7731;50.720;6.912;2024-02-21T01:45:19;8.80;99.90
15257;DHT22;7731;50.720;6.912;2024-02-21T01:47:49;8.90;99.90
15257;DHT22;7731;50.720;6.912;2024-02-21T01:50:23;8.90;99.90
15257;DHT22;7731;50.720;6.912;2024-02-21T01:52:57;8.90;99.90
15257;DHT22;7731;50.720;6.912;2024-02-21T01:55:28;8.80;99.90
15257;DHT22;7731;50.720;6.912;2024-02-21T01:58:07;8.80;99.90
15257;DHT22;7731;50.720;6.912;2024-02-21T02:00:38;8.80;99.90
15257;DHT22;7731;50.720;6.912;2024-02-21T02:03:12;8.80;99.90
15257;DHT22;7731;50.720;6.912;2024-02-21T02:05:44;8.70;99.90
15257;DHT22;7731;50.720;6.912;2024-02-21T02:08:19;8.70;99.90
15257;DHT22;7731;50.720;6.912;2024-02-21T02:10:50;8.60;99.90
15257;DHT22;7731;50.720;6.912;2024-02-21T02:13:37;8.70;99.90
15257;DHT22;7731;50.720;6.912;2024-02-21T02:16:15;8.60;99.90
15257;DHT22;7731;50.720;6.912;2024-02-21T02:18:45;8.60;99.90
15257;DHT22;7731;50.720;6.912;2024-02-21T02:21:23;8.60;99.90
15257;DHT22;7731;50.720;6.912;2024-02-21T02:24:05;8.60;99.90
15257;DHT22;7731;50.720;6.912;2024-02-21T02:26:38;8.60;99.90
15257;DHT22;7731;50.720;6.912;2024-02-21T02:29:14;8.80;99.90
15257;DHT22;7731;50.720;6.912;2024-02-21T02:31:44;8.80;99.90
15257;DHT22;7731;50.720;6.912;2024-02-21T02:34:18;8.80;99.90
15257;DHT22;7731;50.720;6.912;2024-02-21T02:36:51;8.80;99.90
15257;DHT22;7731;50.720;6.912;2024-02-21T02:39:31;8.70;99.90
15257;DHT22;7731;50.720;6.912;2024-02-21T02:42:02;8.70;99.90
15257;DHT22;7731;50.720;6.912;2024-02-21T02:44:33;8.80;99.90
15257;DHT22;7731;50.720;6.912;2024-02-21T02:47:06;8.70;99.90
15257;DHT22;7731;50.720;6.912;2024-02-21T02:49:36;8.70;99.90
15257;DHT22;7731;50.720;6.912;2024-02-21T02:52:06;8.70;99.90
15257;DHT22;7731;50.720;6.912;2024-02-21T02:54:39;8.70;99.90
15257;DHT22;7731;50.720;6.912;2024-02-21T02:57:10;8.60;99.90
15257;DHT22;7731;50.720;6.912;2024-02-21T02:59:49;8.60;99.90
15257;DHT22;7731;50.720;6.912;2024-02-21T03:02:25;8.60;99.90
15257;DHT22;7731;50.720;6.912;2024-02-21T03:04:57;8.60;99.90
15257;DHT22;7731;50.720;6.912;2024-02-21T03:07:39;8.60;99.90
15257;DHT22;7731;50.720;6.912;2024-02-21T03:10:13;8.60;99.90
15257;DHT22;7731;50.720;6.912;2024-02-21T03:12:51;8.60;99.90
15257;DHT22;7731;50.720;6.912;2024-02-21T03:15:22;8.60;99.90
15257;DHT22;7731;50.720;6.912;2024-02-21T03:17:52;8.60;99.90
15257;DHT22;7731;50.720;6.912;2024-02-21T03:20:22;8.50;99.90
15257;DHT22;7731;50.720;6.912;2024-02-21T03:22:53;8.40;99.90
15257;DHT22;7731;50.720;6.912;2024-02-21T03:25:26;8.30;99.90
15257;DHT22;7731;50.720;6.912;2024-02-21T03:27:56;8.30;99.90
15257;DHT22;7731;50.720;6.912;2024-02-21T03:30:32;8.30;99.90
15257;DHT22;7731;50.720;6.912;2024-02-21T03:33:05;8.20;99.90
15257;DHT22;7731;50.720;6.912;2024-02-21T03:35:35;8.10;99.90
15257;DHT22;7731;50.720;6.912;2024-02-21T03:38:06;8.20;99.90
15257;DHT22;7731;50.720;6.912;2024-02-21T03:40:41;8.10;99.90
15257;DHT22;7731;50.720;6.912;2024-02-21T03:43:14;8.10;99.90
15257;DHT22;7731;50.720;6.912;2024-02-21T03:45:47;8.00;99.90
15257;DHT22;7731;50.720;6.912;2024-02-21T03:48:17;7.90;99.90
15257;DHT22;7731;50.720;6.912;2024-02-21T03:50:51;7.80;99.90
15257;DHT22;7731;50.720;6.912;2024-02-21T03:53:21;7.70;99.90
15257;DHT22;7731;50.720;6.912;2024-02-21T03:55:57;7.70;99.90
15257;DHT22;7731;50.720;6.912;2024-02-21T03:58:31;7.70;99.90
15257;DHT22;7731;50.720;6.912;2024-02-21T04:01:02;7.70;99.90
15257;DHT22;7731;50.720;6.912;2024-02-21T04:03:39;7.70;99.90
15257;DHT22;7731;50.720;6.912;2024-02-21T04:06:10;7.70;99.90
15257;DHT22;7731;50.720;6.912;2024-02-21T04:08:40;7.70;99.90
15257;DHT22;7731;50.720;6.912;2024-02-21T04:11:13;7.80;99.90
15257;DHT22;7731;50.720;6.912;2024-02-21T04:13:44;7.90;99.90
15257;DHT22;7731;50.720;6.912;2024-02-21T04:16:22;8.10;99.90
15257;DHT22;7731;50.720;6.912;2024-02-21T04:18:52;8.20;99.90
15257;DHT22;7731;50.720;6.912;2024-02-21T04:21:25;8.30;99.90
15257;DHT22;7731;50.720;6.912;2024-02-21T04:23:59;8.40;99.90
15257;DHT22;7731;50.720;6.912;2024-02-21T04:26:35;8.40;99.90
15257;DHT22;7731;50.720;6.912;2024-02-21T04:29:06;8.30;99.90
15257;DHT22;7731;50.720;6.912;2024-02-21T04:31:39;8.30;99.90
15257;DHT22;7731;50.720;6.912;2024-02-21T04:34:12;8.40;99.90
15257;DHT22;7731;50.720;6.912;2024-02-21T04:36:49;8.50;99.90
15257;DHT22;7731;50.720;6.912;2024-02-21T04:39:19;8.50;99.90
15257;DHT22;7731;50.720;6.912;2024-02-21T04:42:01;8.50;99.90
15257;DHT22;7731;50.720;6.912;2024-02-21T04:44:31;8.60;99.90
15257;DHT22;7731;50.720;6.912;2024-02-21T04:47:09;8.60;99.90
15257;DHT22;7731;50.720;6.912;2024-02-21T04:49:42;8.70;99.90
15257;DHT22;7731;50.720;6.912;2024-02-21T04:52:15;8.70;99.90
15257;DHT22;7731;50.720;6.912;2024-02-21T04:54:46;8.70;99.90
15257;DHT22;7731;50.720;6.912;2024-02-21T04:57:31;8.80;99.90
15257;DHT22;7731;50.720;6.912;2024-02-21T05:00:06;8.80;99.90
15257;DHT22;7731;50.720;6.912;2024-02-21T05:02:37;8.80;99.90
15257;DHT22;7731;50.720;6.912;2024-02-21T05:05:14;8.80;99.90
15257;DHT22;7731;50.720;6.912;2024-02-21T05:07:44;8.90;99.90
15257;DHT22;7731;50.720;6.912;2024-02-21T05:10:15;8.80;99.90
15257;DHT22;7731;50.720;6.912;2024-02-21T05:12:49;8.80;99.90
15257;DHT22;7731;50.720;6.912;2024-02-21T05:15:22;8.70;99.90
15257;DHT22;7731;50.720;6.912;2024-02-21T05:17:53;8.70;99.90
15257;DHT22;7731;50.720;6.912;2024-02-21T05:20:25;8.70;99.90
15257;DHT22;7731;50.720;6.912;2024-02-21T05:22:59;8.70;99.90
15257;DHT22;7731;50.720;6.912;2024-02-21T05:25:29;8.80;99.90
15257;DHT22;7731;50.720;6.912;2024-02-21T05:28:02;8.80;99.90
15257;DHT22;7731;50.720;6.912;2024-02-21T05:30:33;8.80;99.90
15257;DHT22;7731;50.720;6.912;2024-02-21T05:33:06;8.80;99.90
15257;DHT22;7731;50.720;6.912;2024-02-21T05:35:37;8.90;99.90
15257;DHT22;7731;50.720;6.912;2024-02-21T05:38:10;8.80;99.90
15257;DHT22;7731;50.720;6.912;2024-02-21T05:40:45;8.80;99.90
15257;DHT22;7731;50.720;6.912;2024-02-21T05:43:18;8.80;99.90
15257;DHT22;7731;50.720;6.912;2024-02-21T05:45:48;8.80;99.90
15257;DHT22;7731;50.720;6.912;2024-02-21T05:48:18;8.80;99.90
15257;DHT22;7731;50.720;6.912;2024-02-21T05:50:49;8.80;99.90
15257;DHT22;7731;50.720;6.912;2024-02-21T05:53:22;8.80;99.90
15257;DHT22;7731;50.720;6.912;2024-02-21T05:55:55;8.80;99.90
15257;DHT22;7731;50.720;6.912;2024-02-21T05:58:31;8.80;99.90
15257;DHT22;7731;50.720;6.912;2024-02-21T06:01:07;8.70;99.90
15257;DHT22;7731;50.720;6.912;2024-02-21T06:03:38;8.80;99.90
15257;DHT22;7731;50.720;6.912;2024-02-21T06:06:20;8.70;99.90
15257;DHT22;7731;50.720;6.912;2024-02-21T06:08:52;8.70;99.90
15257;DHT22;7731;50.720;6.912;2024-02-21T06:11:25;8.60;99.90
15257;DHT22;7731;50.720;6.912;2024-02-21T06:14:01;8.70;99.90
15257;DHT22;7731;50.720;6.912;2024-02-21T06:19:19;8.70;99.90
15257;DHT22;7731;50.720;6.912;2024-02-21T06:21:53;8.70;99.90
15257;DHT22;7731;50.720;6.912;2024-02-21T06:24:23;8.70;99.90
15257;DHT22;7731;50.720;6.912;2024-02-21T06:26:53;8.60;99.90
15257;DHT22;7731;50.720;6.912;2024-02-21T06:29:26;8.60;99.90
15257;DHT22;7731;50.720;6.912;2024-02-21T06:32:02;8.60;99.90
15257;DHT22;7731;50.720;6.912;2024-02-21T06:34:33;8.60;99.90
15257;DHT22;7731;50.720;6.912;2024-02-21T06:37:04;8.60;99.90
15257;DHT22;7731;50.720;6.912;2024-02-21T06:39:35;8.50;99.90
15257;DHT22;7731;50.720;6.912;2024-02-21T06:42:07;8.50;99.90
15257;DHT22;7731;50.720;6.912;2024-02-21T06:44:41;8.50;99.90
15257;DHT22;7731;50.720;6.912;2024-02-21T06:47:11;8.50;99.90
15257;DHT22;7731;50.720;6.912;2024-02-21T06:49:41;8.60;99.90
15257;DHT22;7731;50.720;6.912;2024-02-21T06:52:11;8.70;99.90
15257;DHT22;7731;50.720;6.912;2024-02-21T06:54:44;8.80;99.90
15257;DHT22;7731;50.720;6.912;2024-02-21T06:57:15;8.80;99.90
15257;DHT22;7731;50.720;6.912;2024-02-21T06:59:48;8.80;99.90
15257;DHT22;7731;50.720;6.912;2024-02-21T07:02:21;8.90;99.90
15257;DHT22;7731;50.720;6.912;2024-02-21T07:04:51;9.00;99.90
15257;DHT22;7731;50.720;6.912;2024-02-21T07:07:21;8.90;99.90
15257;DHT22;7731;50.720;6.912;2024-02-21T07:09:55;9.00;99.90
15257;DHT22;7731;50.720;6.912;2024-02-21T07:12:31;9.00;99.90
15257;DHT22;7731;50.720;6.912;2024-02-21T07:15:11;9.00;99.90
15257;DHT22;7731;50.720;6.912;2024-02-21T07:17:50;9.10;99.90
15257;DHT22;7731;50.720;6.912;2024-02-21T07:20:20;9.10;99.90
15257;DHT22;7731;50.720;6.912;2024-02-21T07:22:50;9.10;99.90
15257;DHT22;7731;50.720;6.912;2024-02-21T07:25:21;9.10;99.90
15257;DHT22;7731;50.720;6.912;2024-02-21T07:27:51;9.10;99.90
15257;DHT22;7731;50.720;6.912;2024-02-21T07:30:29;9.10;99.90
15257;DHT22;7731;50.720;6.912;2024-02-21T07:32:59;9.20;99.90
15257;DHT22;7731;50.720;6.912;2024-02-21T07:35:32;9.20;99.90
15257;DHT22;7731;50.720;6.912;2024-02-21T07:38:04;9.20;99.90
15257;DHT22;7731;50.720;6.912;2024-02-21T07:40:35;9.20;99.90
15257;DHT22;7731;50.720;6.912;2024-02-21T07:43:06;9.30;99.90
15257;DHT22;7731;50.720;6.912;2024-02-21T07:45:39;9.20;99.90
15257;DHT22;7731;50.720;6.912;2024-02-21T07:48:09;9.30;99.90
15257;DHT22;7731;50.720;6.912;2024-02-21T07:50:39;9.20;99.90
15257;DHT22;7731;50.720;6.912;2024-02-21T07:53:12;9.30;99.90
15257;DHT22;7731;50.720;6.912;2024-02-21T07:55:42;9.30;99.90
15257;DHT22;7731;50.720;6.912;2024-02-21T07:58:13;9.40;99.90
15257;DHT22;7731;50.720;6.912;2024-02-21T08:00:46;9.40;99.90
15257;DHT22;7731;50.720;6.912;2024-02-21T08:03:19;9.40;99.90
15257;DHT22;7731;50.720;6.912;2024-02-21T08:05:50;9.40;99.90
15257;DHT22;7731;50.720;6.912;2024-02-21T08:08:20;9.50;99.90
15257;DHT22;7731;50.720;6.912;2024-02-21T08:10:54;9.60;99.90
15257;DHT22;7731;50.720;6.912;2024-02-21T08:13:27;9.80;99.70
15257;DHT22;7731;50.720;6.912;2024-02-21T08:16:01;9.70;91.50
15257;DHT22;7731;50.720;6.912;2024-02-21T08:18:32;9.70;85.60
15257;DHT22;7731;50.720;6.912;2024-02-21T08:21:06;9.80;86.40
15257;DHT22;7731;50.720;6.912;2024-02-21T08:23:36;10.00;60.20
15257;DHT22;7731;50.720;6.912;2024-02-21T08:26:07;10.10;51.30
15257;DHT22;7731;50.720;6.912;2024-02-21T08:28:42;10.40;32.90
15257;DHT22;7731;50.720;6.912;2024-02-21T08:31:21;10.60;10.00
15257;DHT22;7731;50.720;6.912;2024-02-21T08:33:55;10.80;1.00
15257;DHT22;7731;50.720;6.912;2024-02-21T08:36:30;11.00;1.00
15257;DHT22;7731;50.720;6.912;2024-02-21T08:39:04;10.90;1.00
15257;DHT22;7731;50.720;6.912;2024-02-21T08:41:36;10.90;1.00
15257;DHT22;7731;50.720;6.912;2024-02-21T08:44:28;11.10;1.00
15257;DHT22;7731;50.720;6.912;2024-02-21T08:47:01;11.10;1.00
15257;DHT22;7731;50.720;6.912;2024-02-21T08:49:33;11.10;1.00
15257;DHT22;7731;50.720;6.912;2024-02-21T08:52:06;11.00;1.00
15257;DHT22;7731;50.720;6.912;2024-02-21T08:54:36;11.00;1.00
15257;DHT22;7731;50.720;6.912;2024-02-21T08:57:09;11.00;1.00
15257;DHT22;7731;50.720;6.912;2024-02-21T08:59:40;11.30;1.00
15257;DHT22;7731;50.720;6.912;2024-02-21T09:02:16;11.60;1.00
15257;DHT22;7731;50.720;6.912;2024-02-21T09:04:46;12.00;1.00
15257;DHT22;7731;50.720;6.912;2024-02-21T09:07:17;12.10;99.90
15257;DHT22;7731;50.720;6.912;2024-02-21T09:10:02;12.30;99.90
15257;DHT22;7731;50.720;6.912;2024-02-21T09:12:33;12.50;1.00
15257;DHT22;7731;50.720;6.912;2024-02-21T09:15:05;12.50;1.00
15257;DHT22;7731;50.720;6.912;2024-02-21T09:17:39;12.50;99.90
15257;DHT22;7731;50.720;6.912;2024-02-21T09:20:12;12.60;99.90
15257;DHT22;7731;50.720;6.912;2024-02-21T09:22:45;12.40;99.90
15257;DHT22;7731;50.720;6.912;2024-02-21T09:25:21;12.50;52.00
15257;DHT22;7731;50.720;6.912;2024-02-21T09:27:53;12.40;99.90
15257;DHT22;7731;50.720;6.912;2024-02-21T09:30:25;12.20;1.00
15257;DHT22;7731;50.720;6.912;2024-02-21T09:32:58;12.20;1.00
15257;DHT22;7731;50.720;6.912;2024-02-21T09:35:29;12.30;1.00
15257;DHT22;7731;50.720;6.912;2024-02-21T09:38:07;12.20;1.00
15257;DHT22;7731;50.720;6.912;2024-02-21T09:40:38;12.40;1.00
15257;DHT22;7731;50.720;6.912;2024-02-21T09:43:09;12.60;1.00
15257;DHT22;7731;50.720;6.912;2024-02-21T09:45:46;12.50;99.90
15257;DHT22;7731;50.720;6.912;2024-02-21T09:48:39;12.50;1.00
15257;DHT22;7731;50.720;6.912;2024-02-21T09:51:25;12.60;99.90
15257;DHT22;7731;50.720;6.912;2024-02-21T09:54:03;12.50;1.00
15257;DHT22;7731;50.720;6.912;2024-02-21T09:56:45;12.60;99.90
15257;DHT22;7731;50.720;6.912;2024-02-21T09:59:16;12.60;1.00
15257;DHT22;7731;50.720;6.912;2024-02-21T10:01:47;12.50;99.90
15257;DHT22;7731;50.720;6.912;2024-02-21T10:04:21;12.60;99.90
15257;DHT22;7731;50.720;6.912;2024-02-21T10:06:55;12.70;99.90
15257;DHT22;7731;50.720;6.912;2024-02-21T10:09:28;12.90;1.00
15257;DHT22;7731;50.720;6.912;2024-02-21T10:12:13;13.00;99.90
15257;DHT22;7731;50.720;6.912;2024-02-21T10:14:49;13.00;99.90
15257;DHT22;7731;50.720;6.912;2024-02-21T10:17:30;12.90;99.90
15257;DHT22;7731;50.720;6.912;2024-02-21T10:20:11;12.80;99.90
15257;DHT22;7731;50.720;6.912;2024-02-21T10:22:44;12.80;99.90
15257;DHT22;7731;50.720;6.912;2024-02-21T10:25:15;12.80;99.90
15257;DHT22;7731;50.720;6.912;2024-02-21T10:27:48;12.80;99.90
15257;DHT22;7731;50.720;6.912;2024-02-21T10:30:19;12.90;99.90
15257;DHT22;7731;50.720;6.912;2024-02-21T10:32:50;13.20;99.90
15257;DHT22;7731;50.720;6.912;2024-02-21T10:35:32;13.20;1.00
15257;DHT22;7731;50.720;6.912;2024-02-21T10:38:06;13.50;1.00
15257;DHT22;7731;50.720;6.912;2024-02-21T10:40:36;13.50;99.90
15257;DHT22;7731;50.720;6.912;2024-02-21T10:43:12;13.60;80.20
15257;DHT22;7731;50.720;6.912;2024-02-21T10:45:50;13.50;90.40
15257;DHT22;7731;50.720;6.912;2024-02-21T10:48:31;13.30;99.90
15257;DHT22;7731;50.720;6.912;2024-02-21T10:51:15;13.00;99.90
15257;DHT22;7731;50.720;6.912;2024-02-21T10:53:55;13.00;99.90
15257;DHT22;7731;50.720;6.912;2024-02-21T10:56:34;13.10;99.90
15257;DHT22;7731;50.720;6.912;2024-02-21T10:59:08;13.10;99.90
15257;DHT22;7731;50.720;6.912;2024-02-21T11:01:38;13.20;99.90
15257;DHT22;7731;50.720;6.912;2024-02-21T11:04:10;13.10;1.00
15257;DHT22;7731;50.720;6.912;2024-02-21T11:06:44;13.30;99.90
15257;DHT22;7731;50.720;6.912;2024-02-21T11:09:29;13.30;99.90
15257;DHT22;7731;50.720;6.912;2024-02-21T11:12:03;13.20;99.90
15257;DHT22;7731;50.720;6.912;2024-02-21T11:14:38;13.20;99.90
15257;DHT22;7731;50.720;6.912;2024-02-21T11:17:21;13.30;99.90
15257;DHT22;7731;50.720;6.912;2024-02-21T11:19:54;13.20;99.90
15257;DHT22;7731;50.720;6.912;2024-02-21T11:22:27;13.20;99.90
15257;DHT22;7731;50.720;6.912;2024-02-21T11:25:06;13.30;99.90
15257;DHT22;7731;50.720;6.912;2024-02-21T11:27:46;13.30;99.90
15257;DHT22;7731;50.720;6.912;2024-02-21T11:30:16;13.20;99.90
15257;DHT22;7731;50.720;6.912;2024-02-21T11:32:49;13.00;1.00
15257;DHT22;7731;50.720;6.912;2024-02-21T11:35:20;13.00;1.00
15257;DHT22;7731;50.720;6.912;2024-02-21T11:37:53;12.90;1.00
15257;DHT22;7731;50.720;6.912;2024-02-21T11:40:26;12.90;1.00
15257;DHT22;7731;50.720;6.912;2024-02-21T11:42:59;12.90;1.00
15257;DHT22;7731;50.720;6.912;2024-02-21T11:45:32;12.80;1.00
15257;DHT22;7731;50.720;6.912;2024-02-21T11:48:04;12.80;1.00
15257;DHT22;7731;50.720;6.912;2024-02-21T11:50:36;12.80;1.00
15257;DHT22;7731;50.720;6.912;2024-02-21T11:53:09;12.80;1.00
15257;DHT22;7731;50.720;6.912;2024-02-21T11:55:40;12.70;71.70
15257;DHT22;7731;50.720;6.912;2024-02-21T11:58:16;12.60;99.90
15257;DHT22;7731;50.720;6.912;2024-02-21T12:00:46;12.60;1.00
15257;DHT22;7731;50.720;6.912;2024-02-21T12:03:16;12.50;1.00
15257;DHT22;7731;50.720;6.912;2024-02-21T12:05:50;12.30;99.90
15257;DHT22;7731;50.720;6.912;2024-02-21T12:08:24;12.20;99.90
15257;DHT22;7731;50.720;6.912;2024-02-21T12:11:17;12.20;1.00
15257;DHT22;7731;50.720;6.912;2024-02-21T12:13:59;12.10;1.00
15257;DHT22;7731;50.720;6.912;2024-02-21T12:16:32;12.20;99.90
15257;DHT22;7731;50.720;6.912;2024-02-21T12:19:04;12.30;1.00
15257;DHT22;7731;50.720;6.912;2024-02-21T12:21:36;12.40;1.00
15257;DHT22;7731;50.720;6.912;2024-02-21T12:24:17;12.30;99.90
15257;DHT22;7731;50.720;6.912;2024-02-21T12:26:50;12.30;99.90
15257;DHT22;7731;50.720;6.912;2024-02-21T12:29:22;12.20;96.20
15257;DHT22;7731;50.720;6.912;2024-02-21T12:31:53;12.20;1.00
15257;DHT22;7731;50.720;6.912;2024-02-21T12:34:25;12.10;99.90
15257;DHT22;7731;50.720;6.912;2024-02-21T12:37:14;12.30;1.00
15257;DHT22;7731;50.720;6.912;2024-02-21T12:39:58;12.30;96.50
15257;DHT22;7731;50.720;6.912;2024-02-21T12:42:31;12.20;1.00
15257;DHT22;7731;50.720;6.912;2024-02-21T12:45:02;12.10;1.00
15257;DHT22;7731;50.720;6.912;2024-02-21T12:47:33;12.00;99.90
15257;DHT22;7731;50.720;6.912;2024-02-21T12:50:10;12.10;91.80
15257;DHT22;7731;50.720;6.912;2024-02-21T12:52:42;12.10;91.70
15257;DHT22;7731;50.720;6.912;2024-02-21T12:55:15;12.20;99.90
15257;DHT22;7731;50.720;6.912;2024-02-21T12:57:45;12.20;7.30
15257;DHT22;7731;50.720;6.912;2024-02-21T13:00:17;12.20;1.00
15257;DHT22;7731;50.720;6.912;2024-02-21T13:02:48;12.20;25.30
15257;DHT22;7731;50.720;6.912;2024-02-21T13:05:18;12.10;99.90
15257;DHT22;7731;50.720;6.912;2024-02-21T13:07:50;12.20;99.90
15257;DHT22;7731;50.720;6.912;2024-02-21T13:10:24;12.10;99.90
15257;DHT22;7731;50.720;6.912;2024-02-21T13:12:57;12.10;99.90
15257;DHT22;7731;50.720;6.912;2024-02-21T13:15:30;12.00;1.00
15257;DHT22;7731;50.720;6.912;2024-02-21T13:18:04;11.80;99.90
15257;DHT22;7731;50.720;6.912;2024-02-21T13:20:37;11.80;1.00
15257;DHT22;7731;50.720;6.912;2024-02-21T13:23:08;11.70;99.90
15257;DHT22;7731;50.720;6.912;2024-02-21T13:25:44;11.70;1.00
15257;DHT22;7731;50.720;6.912;2024-02-21T13:28:20;11.50;39.90
15257;DHT22;7731;50.720;6.912;2024-02-21T13:30:50;11.50;99.90
15257;DHT22;7731;50.720;6.912;2024-02-21T13:33:23;11.60;88.80
15257;DHT22;7731;50.720;6.912;2024-02-21T13:36:02;11.60;1.00
15257;DHT22;7731;50.720;6.912;2024-02-21T13:38:36;11.70;1.00
15257;DHT22;7731;50.720;6.912;2024-02-21T13:41:10;11.80;99.90
15257;DHT22;7731;50.720;6.912;2024-02-21T13:43:49;11.80;75.60
15257;DHT22;7731;50.720;6.912;2024-02-21T13:46:21;12.00;99.90
15257;DHT22;7731;50.720;6.912;2024-02-21T13:48:53;12.20;1.00
15257;DHT22;7731;50.720;6.912;2024-02-21T13:51:34;12.20;99.90
15257;DHT22;7731;50.720;6.912;2024-02-21T13:54:11;12.20;1.00
15257;DHT22;7731;50.720;6.912;2024-02-21T13:56:52;12.10;1.00
15257;DHT22;7731;50.720;6.912;2024-02-21T13:59:23;12.00;1.00
15257;DHT22;7731;50.720;6.912;2024-02-21T14:01:55;12.00;1.00
15257;DHT22;7731;50.720;6.912;2024-02-21T14:04:26;12.00;99.90
15257;DHT22;7731;50.720;6.912;2024-02-21T14:06:58;12.10;1.00
15257;DHT22;7731;50.720;6.912;2024-02-21T14:09:29;12.00;80.40
15257;DHT22;7731;50.720;6.912;2024-02-21T14:12:05;12.10;1.00
15257;DHT22;7731;50.720;6.912;2024-02-21T14:14:37;12.30;1.00
15257;DHT22;7731;50.720;6.912;2024-02-21T14:17:11;12.30;99.90
15257;DHT22;7731;50.720;6.912;2024-02-21T14:19:42;12.10;1.00
15257;DHT22;7731;50.720;6.912;2024-02-21T14:22:15;12.00;99.90
15257;DHT22;7731;50.720;6.912;2024-02-21T14:24:46;12.00;99.90
15257;DHT22;7731;50.720;6.912;2024-02-21T14:27:21;12.10;99.90
15257;DHT22;7731;50.720;6.912;2024-02-21T14:30:00;12.10;99.90
15257;DHT22;7731;50.720;6.912;2024-02-21T14:32:37;12.10;99.90
15257;DHT22;7731;50.720;6.912;2024-02-21T14:35:08;12.10;1.00
15257;DHT22;7731;50.720;6.912;2024-02-21T14:37:39;12.10;1.00
15257;DHT22;7731;50.720;6.912;2024-02-21T14:40:10;12.20;1.00
15257;DHT22;7731;50.720;6.912;2024-02-21T14:42:51;12.20;1.00
15257;DHT22;7731;50.720;6.912;2024-02-21T14:45:22;12.20;1.00
15257;DHT22;7731;50.720;6.912;2024-02-21T14:47:59;12.10;1.00
15257;DHT22;7731;50.720;6.912;2024-02-21T14:50:31;12.10;1.00
15257;DHT22;7731;50.720;6.912;2024-02-21T14:53:01;12.10;1.00
15257;DHT22;7731;50.720;6.912;2024-02-21T14:55:31;12.00;1.00
15257;DHT22;7731;50.720;6.912;2024-02-21T14:58:08;11.90;1.00
15257;DHT22;7731;50.720;6.912;2024-02-21T15:00:39;11.90;31.30
15257;DHT22;7731;50.720;6.912;2024-02-21T15:03:09;11.80;99.90
15257;DHT22;7731;50.720;6.912;2024-02-21T15:05:42;11.80;1.00
15257;DHT22;7731;50.720;6.912;2024-02-21T15:08:22;11.80;1.00
15257;DHT22;7731;50.720;6.912;2024-02-21T15:10:52;11.80;1.00
15257;DHT22;7731;50.720;6.912;2024-02-21T15:13:25;11.80;1.00
15257;DHT22;7731;50.720;6.912;2024-02-21T15:16:00;11.80;1.00
15257;DHT22;7731;50.720;6.912;2024-02-21T15:18:31;11.70;1.00
15257;DHT22;7731;50.720;6.912;2024-02-21T15:21:05;11.70;1.00
15257;DHT22;7731;50.720;6.912;2024-02-21T15:23:40;11.70;1.00
15257;DHT22;7731;50.720;6.912;2024-02-21T15:26:10;11.70;1.00
15257;DHT22;7731;50.720;6.912;2024-02-21T15:28:45;11.70;1.00
15257;DHT22;7731;50.720;6.912;2024-02-21T15:31:21;11.60;1.00
15257;DHT22;7731;50.720;6.912;2024-02-21T15:33:52;11.60;48.40
15257;DHT22;7731;50.720;6.912;2024-02-21T15:36:23;11.60;99.90
15257;DHT22;7731;50.720;6.912;2024-02-21T15:38:55;11.50;99.90
15257;DHT22;7731;50.720;6.912;2024-02-21T15:41:26;11.50;99.90
15257;DHT22;7731;50.720;6.912;2024-02-21T15:43:59;11.40;1.00
15257;DHT22;7731;50.720;6.912;2024-02-21T15:46:31;11.30;99.90
15257;DHT22;7731;50.720;6.912;2024-02-21T15:49:04;11.30;99.90
15257;DHT22;7731;50.720;6.912;2024-02-21T15:51:37;11.20;99.90
15257;DHT22;7731;50.720;6.912;2024-02-21T15:54:08;11.10;99.90
15257;DHT22;7731;50.720;6.912;2024-02-21T15:56:41;11.00;1.00
15257;DHT22;7731;50.720;6.912;2024-02-21T15:59:14;11.00;1.00
15257;DHT22;7731;50.720;6.912;2024-02-21T16:01:48;10.90;1.00
15257;DHT22;7731;50.720;6.912;2024-02-21T16:04:21;10.90;99.90
15257;DHT22;7731;50.720;6.912;2024-02-21T16:06:51;10.80;1.00
15257;DHT22;7731;50.720;6.912;2024-02-21T16:09:22;10.80;1.00
15257;DHT22;7731;50.720;6.912;2024-02-21T16:11:55;10.80;94.20
15257;DHT22;7731;50.720;6.912;2024-02-21T16:14:36;10.70;1.00
15257;DHT22;7731;50.720;6.912;2024-02-21T16:17:07;10.70;1.00
15257;DHT22;7731;50.720;6.912;2024-02-21T16:19:37;10.70;97.20
15257;DHT22;7731;50.720;6.912;2024-02-21T16:22:10;10.70;99.90
15257;DHT22;7731;50.720;6.912;2024-02-21T16:24:41;10.60;99.90
15257;DHT22;7731;50.720;6.912;2024-02-21T16:27:11;10.60;1.00
15257;DHT22;7731;50.720;6.912;2024-02-21T16:29:45;10.60;1.00
15257;DHT22;7731;50.720;6.912;2024-02-21T16:32:15;10.60;1.00
15257;DHT22;7731;50.720;6.912;2024-02-21T16:34:45;10.50;1.00
15257;DHT22;7731;50.720;6.912;2024-02-21T16:37:16;10.40;1.00
15257;DHT22;7731;50.720;6.912;2024-02-21T16:39:46;10.40;1.00